TS Flower — V7RS6 — position and weather

sailwx.info

Track history (hours):
 
Tides and Currents Weather Stations Pressure Air Temp Water Temp Dewpoint Dewpoint Depression Visibility Wind Speed Wind Dir Waves Ship Positions

TS Flower

Last reported at 2018-Jul-04 13:55 UTC. Time now 2018-Aug-14 19:29 UTC.
Position N 49°49' W 003°48'.
Warning: this ship's position is 41 days out of date.

Length 182 m; draft 10.6 m.

Type: Cargo ship. MMSI: 538006824.

Date/timePositionNaut miles runAvg speedWind from/ knotsBaromVisibWave heightAir tempDewpointWater temp
2018-Jul-04 13:55N 49°49' W 003°48'512.5
2018-Jul-04 13:29N 49°51' W 003°40'612.2
2018-Jul-04 13:01N 49°52' W 003°31'611.7
2018-Jul-04 12:31N 49°54' W 003°22'611.2
2018-Jul-04 12:00N 49°56' W 003°14'511.0
2018-Jul-04 11:31N 49°57' W 003°06'510.9
2018-Jul-04 11:01N 49°58' W 002°57'810.8
2018-Jul-04 10:14N 50°00' W 002°45'310.7
2018-Jul-04 09:59N 50°01' W 002°41'511.0
2018-Jul-04 09:30N 50°03' W 002°33'3912.7
2018-Jul-04 06:26N 50°13' W 001°34'1314.7
2018-Jul-04 05:32N 50°17' W 001°14'514.9
2018-Jul-04 05:12N 50°18' W 001°07'1314.6
2018-Jul-04 04:20N 50°21' W 000°48'513.6
2018-Jul-04 04:00N 50°23' W 000°41'1313.0
2018-Jul-04 03:02N 50°26' W 000°22'012.4
2018-Jul-04 03:00N 50°26' W 000°22'1811.8
2018-Jul-04 01:29N 50°31' E 000°06'510.9
2018-Jul-04 01:00N 50°32' E 000°14'510.5
2018-Jul-04 00:30N 50°34' E 000°22'510.4
2018-Jul-04 00:00N 50°35' E 000°30'510.6
2018-Jul-03 23:30N 50°37' E 000°37'611.2
2018-Jul-03 23:00N 50°41' E 000°44'612.0
2018-Jul-03 22:30N 50°44' E 000°51'612.7
2018-Jul-03 22:00N 50°49' E 000°59'713.4
2018-Jul-03 21:31N 50°53' E 001°07'713.6
2018-Jul-03 21:00N 50°57' E 001°15'713.9
2018-Jul-03 20:31N 51°02' E 001°24'713.4
2018-Jul-03 20:01N 51°06' E 001°32'612.8
2018-Jul-03 19:30N 51°10' E 001°40'612.1
2018-Jul-03 19:00N 51°14' E 001°46'611.3
2018-Jul-03 18:31N 51°19' E 001°51'611.0
2018-Jul-03 18:00N 51°24' E 001°55'510.7
2018-Jul-03 17:30N 51°28' E 002°01'510.6
2018-Jul-03 17:01N 51°32' E 002°07'510.5
2018-Jul-03 16:31N 51°36' E 002°12'510.5
2018-Jul-03 16:00N 51°40' E 002°18'510.9
2018-Jul-03 15:31N 51°44' E 002°23'611.4
2018-Jul-03 15:00N 51°49' E 002°29'612.0
2018-Jul-03 14:31N 51°54' E 002°33'612.4
2018-Jul-03 14:01N 51°60' E 002°37'713.1
2018-Jul-03 13:30N 52°06' E 002°38'713.3
2018-Jul-03 13:00N 52°13' E 002°41'713.8
2018-Jul-03 12:30N 52°19' E 002°45'713.8
2018-Jul-03 12:00N 52°25' E 002°50'713.8
2018-Jul-03 11:31N 52°32' E 002°55'713.6
2018-Jul-03 11:01N 52°38' E 003°00'713.3
2018-Jul-03 10:30N 52°44' E 003°06'713.0
2018-Jul-03 10:00N 52°49' E 003°11'612.6
2018-Jul-03 09:30N 52°55' E 003°15'612.2
2018-Jul-03 09:00N 53°01' E 003°19'611.9
2018-Jul-03 08:30N 53°06' E 003°22'611.6
2018-Jul-03 08:01N 53°12' E 003°25'611.4
2018-Jul-03 07:30N 53°17' E 003°28'611.3
2018-Jul-03 07:00N 53°23' E 003°30'611.4
2018-Jul-03 06:30N 53°28' E 003°33'611.7
2018-Jul-03 06:00N 53°34' E 003°36'612.0
2018-Jul-03 05:29N 53°40' E 003°39'612.0
2018-Jul-03 05:00N 53°45' E 003°44'712.8
2018-Jul-03 04:29N 53°49' E 003°52'912.9
2018-Jul-03 03:46N 53°54' E 004°05'3512.5
2018-Jul-03 00:59N 54°20' E 004°45'612.3
2018-Jul-03 00:28N 54°25' E 004°51'712.1
2018-Jul-02 23:52N 54°31' E 004°58'412.0
2018-Jul-02 23:30N 54°35' E 005°02'611.9
2018-Jul-02 23:00N 54°40' E 005°08'1711.9
2018-Jul-02 21:35N 54°54' E 005°24'111.8
2018-Jul-02 21:28N 54°55' E 005°25'611.9
2018-Jul-02 21:00N 54°60' E 005°30'611.9
2018-Jul-02 20:30N 55°05' E 005°36'17911.9
2018-Jul-02 05:33N 57°31' E 008°42'111.4
2018-Jul-02 05:30N 57°31' E 008°43'611.5
2018-Jul-02 05:00N 57°33' E 008°52'611.3
2018-Jul-02 04:30N 57°36' E 009°02'611.1
2018-Jul-02 04:00N 57°38' E 009°11'510.9
2018-Jul-02 03:30N 57°40' E 009°21'611.2
2018-Jul-02 03:01N 57°43' E 009°30'611.5
2018-Jul-02 02:30N 57°45' E 009°40'611.7
2018-Jul-02 02:01N 57°47' E 009°50'611.6
2018-Jul-02 01:30N 57°49' E 010°01'612.2
2018-Jul-02 01:00N 57°48' E 010°12'612.2
2018-Jul-02 00:30N 57°49' E 010°24'612.0
2018-Jul-02 00:00N 57°49' E 010°35'611.8
2018-Jul-01 23:30N 57°48' E 010°46'612.0
2018-Jul-01 23:01N 57°45' E 010°54'612.1
2018-Jul-01 22:30N 57°40' E 011°02'611.6
2018-Jul-01 22:00N 57°36' E 011°10'611.4
2018-Jul-01 21:31N 57°33' E 011°18'611.2
2018-Jul-01 21:00N 57°29' E 011°26'610.9
2018-Jul-01 20:30N 57°24' E 011°31'510.9
2018-Jul-01 20:01N 57°19' E 011°33'510.7
2018-Jul-01 19:30N 57°14' E 011°37'510.7
2018-Jul-01 19:00N 57°09' E 011°40'510.8
2018-Jul-01 18:31N 57°03' E 011°43'611.2
2018-Jul-01 18:00N 56°58' E 011°46'511.0
2018-Jul-01 17:30N 56°53' E 011°50'510.8
2018-Jul-01 17:00N 56°48' E 011°53'510.1
2018-Jul-01 16:30N 56°43' E 011°52'8710.7
2018-Jul-01 08:23N 55°20' E 011°02'512.5
2018-Jul-01 08:00N 55°16' E 011°05'611.4
2018-Jul-01 07:30N 55°10' E 011°04'713.1
2018-Jul-01 07:00N 55°04' E 011°01'612.9
2018-Jul-01 06:30N 54°58' E 010°57'612.4
2018-Jul-01 06:01N 54°53' E 010°50'612.7
2018-Jul-01 05:30N 54°47' E 010°49'5 9.7
2018-Jul-01 05:01N 54°42' E 010°47'4 7.1
2018-Jul-01 04:30N 54°39' E 010°51'4 8.6
2018-Jul-01 04:00N 54°37' E 010°57'510.8
2018-Jul-01 03:30N 54°36' E 011°06'612.7
2018-Jul-01 03:01N 54°35' E 011°17'713.1
2018-Jul-01 02:30N 54°32' E 011°27'612.8
2018-Jul-01 02:00N 54°29' E 011°37'612.5
2018-Jul-01 01:30N 54°26' E 011°47'612.4
2018-Jul-01 01:01N 54°26' E 011°58'811.7
2018-Jul-01 00:18N 54°27' E 012°12'411.9
2018-Jun-30 23:57N 54°32' E 012°12'611.7
2018-Jun-30 23:26N 54°37' E 012°16'6112.3
2018-Jun-30 18:30N 55°02' E 013°53'612.3
2018-Jun-30 18:00N 55°04' E 014°03'611.9
2018-Jun-30 17:30N 55°08' E 014°09'612.1
2018-Jun-30 16:59N 55°13' E 014°17'612.2
2018-Jun-30 16:30N 55°18' E 014°23'612.4
2018-Jun-30 16:00N 55°23' E 014°30'612.3
2018-Jun-30 15:30N 55°27' E 014°37'812.3
2018-Jun-30 14:50N 55°31' E 014°50'512.5
2018-Jun-30 14:25N 55°33' E 014°58'612.2
2018-Jun-30 13:56N 55°35' E 015°08'512.2
2018-Jun-30 13:30N 55°37' E 015°17'612.1
2018-Jun-30 13:00N 55°38' E 015°27'612.1
2018-Jun-30 12:30N 55°40' E 015°37'612.2
2018-Jun-30 12:01N 55°42' E 015°48'612.0
2018-Jun-30 11:30N 55°43' E 015°58'612.1
2018-Jun-30 11:00N 55°45' E 016°09'612.1
2018-Jun-30 10:30N 55°46' E 016°19'611.9
2018-Jun-30 10:00N 55°48' E 016°29'611.8
2018-Jun-30 09:30N 55°49' E 016°39'611.9
2018-Jun-30 09:00N 55°51' E 016°49'612.0
2018-Jun-30 08:30N 55°52' E 016°60'30711.0
2018-Jun-29 04:29N 59°39' E 023°28'711.3
2018-Jun-29 03:52N 59°41' E 023°41'1911.5
2018-Jun-29 02:13N 59°46' E 024°17'611.5
2018-Jun-29 01:42N 59°48' E 024°29'210.7
2018-Jun-29 01:28N 59°48' E 024°34'511.2
2018-Jun-29 01:00N 59°49' E 024°44'611.6
2018-Jun-29 00:29N 59°51' E 024°55'611.5
2018-Jun-29 00:00N 59°52' E 025°06'611.5
2018-Jun-28 23:30N 59°52' E 025°18'611.6
2018-Jun-28 23:00N 59°53' E 025°29'611.9
2018-Jun-28 22:30N 59°54' E 025°41'611.7
2018-Jun-28 22:00N 59°55' E 025°52'711.9
2018-Jun-28 21:27N 59°57' E 026°05'511.7
2018-Jun-28 21:00N 59°59' E 026°15'612.1
2018-Jun-28 20:30N 60°00' E 026°27'611.4
2018-Jun-28 20:00N 60°01' E 026°38'611.9
2018-Jun-28 19:30N 60°00' E 026°50'611.9
2018-Jun-28 18:59N 59°60' E 027°02'611.7
2018-Jun-28 18:31N 60°02' E 027°12'611.8
2018-Jun-28 18:00N 60°05' E 027°22'611.7
2018-Jun-28 17:30N 60°08' E 027°32'611.8
2018-Jun-28 17:00N 60°11' E 027°42'510.8
2018-Jun-28 16:30N 60°11' E 027°53'612.0
2018-Jun-28 16:00N 60°10' E 028°05'611.7
2018-Jun-28 15:30N 60°08' E 028°16'612.0
2018-Jun-28 15:00N 60°05' E 028°26'611.7
2018-Jun-28 14:30N 60°03' E 028°37'611.8
2018-Jun-28 14:00N 60°03' E 028°49'611.7
2018-Jun-28 13:30N 60°02' E 029°01'611.5
2018-Jun-28 13:00N 60°02' E 029°12'611.2
2018-Jun-28 12:26N 60°02' E 029°25'3 5.9
2018-Jun-28 12:00N 60°01' E 029°30'4 8.4
2018-Jun-28 11:30N 60°00' E 029°38'4 7.8
2018-Jun-28 11:00N 59°59' E 029°45'3 7.0
2018-Jun-28 10:30N 59°57' E 029°51'4 8.9
2018-Jun-28 10:00N 59°55' E 029°60'4 8.0
2018-Jun-28 09:30N 59°54' E 030°07'2 4.9
2018-Jun-28 09:00N 59°53' E 030°11'0 0.2
2018-Jun-28 08:28N 59°53' E 030°11'0 0.0
2018-Jun-28 07:58N 59°53' E 030°11'0 0.0
2018-Jun-28 07:28N 59°53' E 030°11'0 0.0
2018-Jun-28 06:55N 59°53' E 030°11'0 0.0
2018-Jun-28 06:28N 59°53' E 030°11'0 0.0
2018-Jun-28 05:52N 59°53' E 030°11'0 0.0
2018-Jun-28 05:28N 59°53' E 030°11'0 0.0
2018-Jun-28 04:58N 59°53' E 030°11'0 0.0
2018-Jun-28 04:19N 59°53' E 030°11'0 0.0
2018-Jun-28 03:58N 59°53' E 030°11'0 0.0
2018-Jun-28 03:25N 59°53' E 030°11'0 0.0
2018-Jun-28 02:58N 59°53' E 030°11'0 0.0
2018-Jun-28 02:28N 59°53' E 030°11'0 0.0
2018-Jun-28 01:52N 59°53' E 030°11'0 0.0
2018-Jun-28 01:28N 59°53' E 030°11'0 0.0
2018-Jun-28 00:55N 59°53' E 030°11'0 0.0
2018-Jun-28 00:10N 59°53' E 030°11'0 0.0
2018-Jun-27 23:58N 59°53' E 030°11'0 0.0
2018-Jun-27 23:25N 59°53' E 030°11'0 0.0
2018-Jun-27 22:55N 59°53' E 030°11'0 0.0
2018-Jun-27 22:25N 59°53' E 030°11'0 0.0
2018-Jun-27 21:58N 59°53' E 030°11'0 0.0
2018-Jun-27 21:28N 59°53' E 030°11'0 0.0
2018-Jun-27 20:55N 59°53' E 030°11'0 0.0
2018-Jun-27 20:25N 59°53' E 030°11'0 0.0
2018-Jun-27 19:58N 59°53' E 030°11'0 0.0
2018-Jun-27 19:28N 59°53' E 030°11'0 0.0
2018-Jun-27 18:58N 59°53' E 030°11'0 0.0
2018-Jun-27 18:28N 59°53' E 030°11'0 0.0
2018-Jun-27 17:58N 59°53' E 030°11'0 0.0
2018-Jun-27 17:28N 59°53' E 030°11'0 0.0
2018-Jun-27 16:58N 59°53' E 030°11'0 0.0
2018-Jun-27 16:28N 59°53' E 030°11'0 0.0
2018-Jun-27 15:58N 59°53' E 030°11'0 0.0
2018-Jun-27 15:28N 59°53' E 030°11'0 0.0
2018-Jun-27 14:49N 59°53' E 030°11'0 0.0
2018-Jun-27 14:28N 59°53' E 030°11'0 0.0
2018-Jun-27 13:58N 59°53' E 030°11'0 0.0
2018-Jun-27 13:25N 59°53' E 030°11'0 0.0
2018-Jun-27 12:55N 59°53' E 030°11'0 0.0
2018-Jun-27 12:28N 59°53' E 030°11'0 0.0
2018-Jun-27 11:55N 59°53' E 030°11'0 0.0
2018-Jun-27 11:28N 59°53' E 030°11'0 0.0
2018-Jun-27 10:55N 59°53' E 030°11'0 0.0
2018-Jun-27 10:19N 59°53' E 030°11'0 0.0
2018-Jun-27 09:58N 59°53' E 030°11'0 0.0
2018-Jun-27 09:26N 59°53' E 030°11'0 0.0
2018-Jun-27 08:56N 59°53' E 030°11'0 0.0
2018-Jun-27 08:28N 59°53' E 030°11'0 0.0
2018-Jun-27 07:58N 59°53' E 030°11'0 0.0
2018-Jun-27 07:16N 59°53' E 030°11'0 0.0
2018-Jun-27 06:55N 59°53' E 030°11'0 0.0
2018-Jun-27 06:25N 59°53' E 030°11'0 0.0
2018-Jun-27 05:52N 59°53' E 030°11'0 0.0
2018-Jun-27 05:25N 59°53' E 030°11'0 0.0
2018-Jun-27 04:58N 59°53' E 030°11'0 0.0
2018-Jun-27 04:28N 59°53' E 030°11'0 0.0
2018-Jun-27 03:58N 59°53' E 030°11'0 0.0
2018-Jun-27 03:29N 59°53' E 030°11'0 0.0
2018-Jun-27 02:58N 59°53' E 030°11'0 0.0
2018-Jun-27 02:24N 59°53' E 030°11'0 0.0
2018-Jun-27 01:58N 59°53' E 030°11'0 0.0
2018-Jun-27 01:28N 59°53' E 030°11'0 0.0
2018-Jun-27 00:50N 59°53' E 030°11'0 0.0
2018-Jun-27 00:28N 59°53' E 030°11'0 0.0
2018-Jun-26 23:58N 59°53' E 030°11'0 0.0
2018-Jun-26 23:29N 59°53' E 030°11'0 0.0
2018-Jun-26 22:58N 59°53' E 030°11'0 0.0
2018-Jun-26 22:28N 59°53' E 030°11'0 0.0
2018-Jun-26 21:58N 59°53' E 030°11'0 0.0
2018-Jun-26 21:25N 59°53' E 030°11'0 0.0
2018-Jun-26 20:58N 59°53' E 030°11'0 0.0
2018-Jun-26 20:19N 59°53' E 030°11'0 0.0
2018-Jun-26 19:55N 59°53' E 030°11'0 0.0
2018-Jun-26 19:28N 59°53' E 030°11'0 0.0
2018-Jun-26 18:58N 59°53' E 030°11'0 0.0
2018-Jun-26 18:25N 59°53' E 030°11'0 0.0
2018-Jun-26 17:55N 59°53' E 030°11'0 0.0
2018-Jun-26 17:28N 59°53' E 030°11'0 0.0
2018-Jun-26 16:25N 59°53' E 030°11'0 0.0
2018-Jun-26 15:59N 59°53' E 030°11'2 4.5
2018-Jun-26 15:30N 59°54' E 030°07'4 8.5
2018-Jun-26 15:00N 59°55' E 029°59'5 9.7
2018-Jun-26 14:30N 59°57' E 029°50'6 9.0
2018-Jun-26 13:53N 59°60' E 029°40'4 9.9
2018-Jun-26 13:30N 60°01' E 029°33'5 7.8
2018-Jun-26 12:53N 60°02' E 029°24'2 6.0
2018-Jun-26 12:30N 60°03' E 029°20'3 5.0
2018-Jun-26 11:56N 60°06' E 029°20'0 0.5
2018-Jun-26 11:29N 60°06' E 029°20'0 0.0
2018-Jun-26 10:56N 60°06' E 029°20'0 0.0
2018-Jun-26 10:30N 60°06' E 029°20'0 0.0
2018-Jun-26 10:00N 60°06' E 029°20'0 0.0
2018-Jun-26 09:22N 60°06' E 029°20'0 0.0
2018-Jun-26 08:59N 60°06' E 029°20'0 0.0
2018-Jun-26 08:26N 60°06' E 029°20'0 0.0
2018-Jun-26 07:56N 60°06' E 029°20'0 0.0
2018-Jun-26 07:29N 60°06' E 029°20'0 0.0
2018-Jun-26 06:54N 60°06' E 029°20'0 0.0
2018-Jun-26 06:14N 60°06' E 029°20'0 0.0
2018-Jun-26 05:46N 60°06' E 029°20'0 0.0
2018-Jun-26 05:29N 60°06' E 029°20'0 0.0
2018-Jun-26 02:38N 60°06' E 029°20'0 0.0
2018-Jun-26 01:05N 60°06' E 029°20'0 0.0
2018-Jun-25 23:53N 60°06' E 029°20'0 0.0
2018-Jun-25 17:42N 60°06' E 029°20'0 0.0
2018-Jun-25 17:30N 60°06' E 029°20'0 0.0
2018-Jun-25 17:00N 60°06' E 029°20'0 0.0
2018-Jun-25 16:30N 60°06' E 029°20'0 0.0
2018-Jun-25 14:10N 60°06' E 029°20'0 0.1
2018-Jun-25 13:58N 60°06' E 029°20'0 0.0
2018-Jun-24 20:33N 60°06' E 029°20'  
Track history (hours):
 
Tides and Currents Weather Stations Pressure Air Temp Water Temp Dewpoint Dewpoint Depression Visibility Wind Speed Wind Dir Waves Ship Positions

TS Flower

Last reported at 2018-Jul-04 13:55 UTC. Time now 2018-Aug-14 19:29 UTC.
Position N 49°49' W 003°48'.
Warning: this ship's position is 41 days out of date.

Length 182 m; draft 10.6 m.

Type: Cargo ship. MMSI: 538006824.

Date/timePositionNaut miles runAvg speedWind from/ knotsBaromVisibWave heightAir tempDewpointWater temp
2018-Jul-04 13:55N 49°49' W 003°48'512.5
2018-Jul-04 13:29N 49°51' W 003°40'612.2
2018-Jul-04 13:01N 49°52' W 003°31'611.7
2018-Jul-04 12:31N 49°54' W 003°22'611.2
2018-Jul-04 12:00N 49°56' W 003°14'511.0
2018-Jul-04 11:31N 49°57' W 003°06'510.9
2018-Jul-04 11:01N 49°58' W 002°57'810.8
2018-Jul-04 10:14N 50°00' W 002°45'310.7
2018-Jul-04 09:59N 50°01' W 002°41'511.0
2018-Jul-04 09:30N 50°03' W 002°33'3912.7
2018-Jul-04 06:26N 50°13' W 001°34'1314.7
2018-Jul-04 05:32N 50°17' W 001°14'514.9
2018-Jul-04 05:12N 50°18' W 001°07'1314.6
2018-Jul-04 04:20N 50°21' W 000°48'513.6
2018-Jul-04 04:00N 50°23' W 000°41'1313.0
2018-Jul-04 03:02N 50°26' W 000°22'012.4
2018-Jul-04 03:00N 50°26' W 000°22'1811.8
2018-Jul-04 01:29N 50°31' E 000°06'510.9
2018-Jul-04 01:00N 50°32' E 000°14'510.5
2018-Jul-04 00:30N 50°34' E 000°22'510.4
2018-Jul-04 00:00N 50°35' E 000°30'510.6
2018-Jul-03 23:30N 50°37' E 000°37'611.2
2018-Jul-03 23:00N 50°41' E 000°44'612.0
2018-Jul-03 22:30N 50°44' E 000°51'612.7
2018-Jul-03 22:00N 50°49' E 000°59'713.4
2018-Jul-03 21:31N 50°53' E 001°07'713.6
2018-Jul-03 21:00N 50°57' E 001°15'713.9
2018-Jul-03 20:31N 51°02' E 001°24'713.4
2018-Jul-03 20:01N 51°06' E 001°32'612.8
2018-Jul-03 19:30N 51°10' E 001°40'612.1
2018-Jul-03 19:00N 51°14' E 001°46'611.3
2018-Jul-03 18:31N 51°19' E 001°51'611.0
2018-Jul-03 18:00N 51°24' E 001°55'510.7
2018-Jul-03 17:30N 51°28' E 002°01'510.6
2018-Jul-03 17:01N 51°32' E 002°07'510.5
2018-Jul-03 16:31N 51°36' E 002°12'510.5
2018-Jul-03 16:00N 51°40' E 002°18'510.9
2018-Jul-03 15:31N 51°44' E 002°23'611.4
2018-Jul-03 15:00N 51°49' E 002°29'612.0
2018-Jul-03 14:31N 51°54' E 002°33'612.4
2018-Jul-03 14:01N 51°60' E 002°37'713.1
2018-Jul-03 13:30N 52°06' E 002°38'713.3
2018-Jul-03 13:00N 52°13' E 002°41'713.8
2018-Jul-03 12:30N 52°19' E 002°45'713.8
2018-Jul-03 12:00N 52°25' E 002°50'713.8
2018-Jul-03 11:31N 52°32' E 002°55'713.6
2018-Jul-03 11:01N 52°38' E 003°00'713.3
2018-Jul-03 10:30N 52°44' E 003°06'713.0
2018-Jul-03 10:00N 52°49' E 003°11'612.6
2018-Jul-03 09:30N 52°55' E 003°15'612.2
2018-Jul-03 09:00N 53°01' E 003°19'611.9
2018-Jul-03 08:30N 53°06' E 003°22'611.6
2018-Jul-03 08:01N 53°12' E 003°25'611.4
2018-Jul-03 07:30N 53°17' E 003°28'611.3
2018-Jul-03 07:00N 53°23' E 003°30'611.4
2018-Jul-03 06:30N 53°28' E 003°33'611.7
2018-Jul-03 06:00N 53°34' E 003°36'612.0
2018-Jul-03 05:29N 53°40' E 003°39'612.0
2018-Jul-03 05:00N 53°45' E 003°44'712.8
2018-Jul-03 04:29N 53°49' E 003°52'912.9
2018-Jul-03 03:46N 53°54' E 004°05'3512.5
2018-Jul-03 00:59N 54°20' E 004°45'612.3
2018-Jul-03 00:28N 54°25' E 004°51'712.1
2018-Jul-02 23:52N 54°31' E 004°58'412.0
2018-Jul-02 23:30N 54°35' E 005°02'611.9
2018-Jul-02 23:00N 54°40' E 005°08'1711.9
2018-Jul-02 21:35N 54°54' E 005°24'111.8
2018-Jul-02 21:28N 54°55' E 005°25'611.9
2018-Jul-02 21:00N 54°60' E 005°30'611.9
2018-Jul-02 20:30N 55°05' E 005°36'17911.9
2018-Jul-02 05:33N 57°31' E 008°42'111.4
2018-Jul-02 05:30N 57°31' E 008°43'611.5
2018-Jul-02 05:00N 57°33' E 008°52'611.3
2018-Jul-02 04:30N 57°36' E 009°02'611.1
2018-Jul-02 04:00N 57°38' E 009°11'510.9
2018-Jul-02 03:30N 57°40' E 009°21'611.2
2018-Jul-02 03:01N 57°43' E 009°30'611.5
2018-Jul-02 02:30N 57°45' E 009°40'611.7
2018-Jul-02 02:01N 57°47' E 009°50'611.6
2018-Jul-02 01:30N 57°49' E 010°01'612.2
2018-Jul-02 01:00N 57°48' E 010°12'612.2
2018-Jul-02 00:30N 57°49' E 010°24'612.0
2018-Jul-02 00:00N 57°49' E 010°35'611.8
2018-Jul-01 23:30N 57°48' E 010°46'612.0
2018-Jul-01 23:01N 57°45' E 010°54'612.1
2018-Jul-01 22:30N 57°40' E 011°02'611.6
2018-Jul-01 22:00N 57°36' E 011°10'611.4
2018-Jul-01 21:31N 57°33' E 011°18'611.2
2018-Jul-01 21:00N 57°29' E 011°26'610.9
2018-Jul-01 20:30N 57°24' E 011°31'510.9
2018-Jul-01 20:01N 57°19' E 011°33'510.7
2018-Jul-01 19:30N 57°14' E 011°37'510.7
2018-Jul-01 19:00N 57°09' E 011°40'510.8
2018-Jul-01 18:31N 57°03' E 011°43'611.2
2018-Jul-01 18:00N 56°58' E 011°46'511.0
2018-Jul-01 17:30N 56°53' E 011°50'510.8
2018-Jul-01 17:00N 56°48' E 011°53'510.1
2018-Jul-01 16:30N 56°43' E 011°52'8710.7
2018-Jul-01 08:23N 55°20' E 011°02'512.5
2018-Jul-01 08:00N 55°16' E 011°05'611.4
2018-Jul-01 07:30N 55°10' E 011°04'713.1
2018-Jul-01 07:00N 55°04' E 011°01'612.9
2018-Jul-01 06:30N 54°58' E 010°57'612.4
2018-Jul-01 06:01N 54°53' E 010°50'612.7
2018-Jul-01 05:30N 54°47' E 010°49'5 9.7
2018-Jul-01 05:01N 54°42' E 010°47'4 7.1
2018-Jul-01 04:30N 54°39' E 010°51'4 8.6
2018-Jul-01 04:00N 54°37' E 010°57'510.8
2018-Jul-01 03:30N 54°36' E 011°06'612.7
2018-Jul-01 03:01N 54°35' E 011°17'713.1
2018-Jul-01 02:30N 54°32' E 011°27'612.8
2018-Jul-01 02:00N 54°29' E 011°37'612.5
2018-Jul-01 01:30N 54°26' E 011°47'612.4
2018-Jul-01 01:01N 54°26' E 011°58'811.7
2018-Jul-01 00:18N 54°27' E 012°12'411.9
2018-Jun-30 23:57N 54°32' E 012°12'611.7
2018-Jun-30 23:26N 54°37' E 012°16'6112.3
2018-Jun-30 18:30N 55°02' E 013°53'612.3
2018-Jun-30 18:00N 55°04' E 014°03'611.9
2018-Jun-30 17:30N 55°08' E 014°09'612.1
2018-Jun-30 16:59N 55°13' E 014°17'612.2
2018-Jun-30 16:30N 55°18' E 014°23'612.4
2018-Jun-30 16:00N 55°23' E 014°30'612.3
2018-Jun-30 15:30N 55°27' E 014°37'812.3
2018-Jun-30 14:50N 55°31' E 014°50'512.5
2018-Jun-30 14:25N 55°33' E 014°58'612.2
2018-Jun-30 13:56N 55°35' E 015°08'512.2
2018-Jun-30 13:30N 55°37' E 015°17'612.1
2018-Jun-30 13:00N 55°38' E 015°27'612.1
2018-Jun-30 12:30N 55°40' E 015°37'612.2
2018-Jun-30 12:01N 55°42' E 015°48'612.0
2018-Jun-30 11:30N 55°43' E 015°58'612.1
2018-Jun-30 11:00N 55°45' E 016°09'612.1
2018-Jun-30 10:30N 55°46' E 016°19'611.9
2018-Jun-30 10:00N 55°48' E 016°29'611.8
2018-Jun-30 09:30N 55°49' E 016°39'611.9
2018-Jun-30 09:00N 55°51' E 016°49'612.0
2018-Jun-30 08:30N 55°52' E 016°60'30711.0
2018-Jun-29 04:29N 59°39' E 023°28'711.3
2018-Jun-29 03:52N 59°41' E 023°41'1911.5
2018-Jun-29 02:13N 59°46' E 024°17'611.5
2018-Jun-29 01:42N 59°48' E 024°29'210.7
2018-Jun-29 01:28N 59°48' E 024°34'511.2
2018-Jun-29 01:00N 59°49' E 024°44'611.6
2018-Jun-29 00:29N 59°51' E 024°55'611.5
2018-Jun-29 00:00N 59°52' E 025°06'611.5
2018-Jun-28 23:30N 59°52' E 025°18'611.6
2018-Jun-28 23:00N 59°53' E 025°29'611.9
2018-Jun-28 22:30N 59°54' E 025°41'611.7
2018-Jun-28 22:00N 59°55' E 025°52'711.9
2018-Jun-28 21:27N 59°57' E 026°05'511.7
2018-Jun-28 21:00N 59°59' E 026°15'612.1
2018-Jun-28 20:30N 60°00' E 026°27'611.4
2018-Jun-28 20:00N 60°01' E 026°38'611.9
2018-Jun-28 19:30N 60°00' E 026°50'611.9
2018-Jun-28 18:59N 59°60' E 027°02'611.7
2018-Jun-28 18:31N 60°02' E 027°12'611.8
2018-Jun-28 18:00N 60°05' E 027°22'611.7
2018-Jun-28 17:30N 60°08' E 027°32'611.8
2018-Jun-28 17:00N 60°11' E 027°42'510.8
2018-Jun-28 16:30N 60°11' E 027°53'612.0
2018-Jun-28 16:00N 60°10' E 028°05'611.7
2018-Jun-28 15:30N 60°08' E 028°16'612.0
2018-Jun-28 15:00N 60°05' E 028°26'611.7
2018-Jun-28 14:30N 60°03' E 028°37'611.8
2018-Jun-28 14:00N 60°03' E 028°49'611.7
2018-Jun-28 13:30N 60°02' E 029°01'611.5
2018-Jun-28 13:00N 60°02' E 029°12'611.2
2018-Jun-28 12:26N 60°02' E 029°25'3 5.9
2018-Jun-28 12:00N 60°01' E 029°30'4 8.4
2018-Jun-28 11:30N 60°00' E 029°38'4 7.8
2018-Jun-28 11:00N 59°59' E 029°45'3 7.0
2018-Jun-28 10:30N 59°57' E 029°51'4 8.9
2018-Jun-28 10:00N 59°55' E 029°60'4 8.0
2018-Jun-28 09:30N 59°54' E 030°07'2 4.9
2018-Jun-28 09:00N 59°53' E 030°11'0 0.2
2018-Jun-28 08:28N 59°53' E 030°11'0 0.0
2018-Jun-28 07:58N 59°53' E 030°11'0 0.0
2018-Jun-28 07:28N 59°53' E 030°11'0 0.0
2018-Jun-28 06:55N 59°53' E 030°11'0 0.0
2018-Jun-28 06:28N 59°53' E 030°11'0 0.0
2018-Jun-28 05:52N 59°53' E 030°11'0 0.0
2018-Jun-28 05:28N 59°53' E 030°11'0 0.0
2018-Jun-28 04:58N 59°53' E 030°11'0 0.0
2018-Jun-28 04:19N 59°53' E 030°11'0 0.0
2018-Jun-28 03:58N 59°53' E 030°11'0 0.0
2018-Jun-28 03:25N 59°53' E 030°11'0 0.0
2018-Jun-28 02:58N 59°53' E 030°11'0 0.0
2018-Jun-28 02:28N 59°53' E 030°11'0 0.0
2018-Jun-28 01:52N 59°53' E 030°11'0 0.0
2018-Jun-28 01:28N 59°53' E 030°11'0 0.0
2018-Jun-28 00:55N 59°53' E 030°11'0 0.0
2018-Jun-28 00:10N 59°53' E 030°11'0 0.0
2018-Jun-27 23:58N 59°53' E 030°11'0 0.0
2018-Jun-27 23:25N 59°53' E 030°11'0 0.0
2018-Jun-27 22:55N 59°53' E 030°11'0 0.0
2018-Jun-27 22:25N 59°53' E 030°11'0 0.0
2018-Jun-27 21:58N 59°53' E 030°11'0 0.0
2018-Jun-27 21:28N 59°53' E 030°11'0 0.0
2018-Jun-27 20:55N 59°53' E 030°11'0 0.0
2018-Jun-27 20:25N 59°53' E 030°11'0 0.0
2018-Jun-27 19:58N 59°53' E 030°11'0 0.0
2018-Jun-27 19:28N 59°53' E 030°11'0 0.0
2018-Jun-27 18:58N 59°53' E 030°11'0 0.0
2018-Jun-27 18:28N 59°53' E 030°11'0 0.0
2018-Jun-27 17:58N 59°53' E 030°11'0 0.0
2018-Jun-27 17:28N 59°53' E 030°11'0 0.0
2018-Jun-27 16:58N 59°53' E 030°11'0 0.0
2018-Jun-27 16:28N 59°53' E 030°11'0 0.0
2018-Jun-27 15:58N 59°53' E 030°11'0 0.0
2018-Jun-27 15:28N 59°53' E 030°11'0 0.0
2018-Jun-27 14:49N 59°53' E 030°11'0 0.0
2018-Jun-27 14:28N 59°53' E 030°11'0 0.0
2018-Jun-27 13:58N 59°53' E 030°11'0 0.0
2018-Jun-27 13:25N 59°53' E 030°11'0 0.0
2018-Jun-27 12:55N 59°53' E 030°11'0 0.0
2018-Jun-27 12:28N 59°53' E 030°11'0 0.0
2018-Jun-27 11:55N 59°53' E 030°11'0 0.0
2018-Jun-27 11:28N 59°53' E 030°11'0 0.0
2018-Jun-27 10:55N 59°53' E 030°11'0 0.0
2018-Jun-27 10:19N 59°53' E 030°11'0 0.0
2018-Jun-27 09:58N 59°53' E 030°11'0 0.0
2018-Jun-27 09:26N 59°53' E 030°11'0 0.0
2018-Jun-27 08:56N 59°53' E 030°11'0 0.0
2018-Jun-27 08:28N 59°53' E 030°11'0 0.0
2018-Jun-27 07:58N 59°53' E 030°11'0 0.0
2018-Jun-27 07:16N 59°53' E 030°11'0 0.0
2018-Jun-27 06:55N 59°53' E 030°11'0 0.0
2018-Jun-27 06:25N 59°53' E 030°11'0 0.0
2018-Jun-27 05:52N 59°53' E 030°11'0 0.0
2018-Jun-27 05:25N 59°53' E 030°11'0 0.0
2018-Jun-27 04:58N 59°53' E 030°11'0 0.0
2018-Jun-27 04:28N 59°53' E 030°11'0 0.0
2018-Jun-27 03:58N 59°53' E 030°11'0 0.0
2018-Jun-27 03:29N 59°53' E 030°11'0 0.0
2018-Jun-27 02:58N 59°53' E 030°11'0 0.0
2018-Jun-27 02:24N 59°53' E 030°11'0 0.0
2018-Jun-27 01:58N 59°53' E 030°11'0 0.0
2018-Jun-27 01:28N 59°53' E 030°11'0 0.0
2018-Jun-27 00:50N 59°53' E 030°11'0 0.0
2018-Jun-27 00:28N 59°53' E 030°11'0 0.0
2018-Jun-26 23:58N 59°53' E 030°11'0 0.0
2018-Jun-26 23:29N 59°53' E 030°11'0 0.0
2018-Jun-26 22:58N 59°53' E 030°11'0 0.0
2018-Jun-26 22:28N 59°53' E 030°11'0 0.0
2018-Jun-26 21:58N 59°53' E 030°11'0 0.0
2018-Jun-26 21:25N 59°53' E 030°11'0 0.0
2018-Jun-26 20:58N 59°53' E 030°11'0 0.0
2018-Jun-26 20:19N 59°53' E 030°11'0 0.0
2018-Jun-26 19:55N 59°53' E 030°11'0 0.0
2018-Jun-26 19:28N 59°53' E 030°11'0 0.0
2018-Jun-26 18:58N 59°53' E 030°11'0 0.0
2018-Jun-26 18:25N 59°53' E 030°11'0 0.0
2018-Jun-26 17:55N 59°53' E 030°11'0 0.0
2018-Jun-26 17:28N 59°53' E 030°11'0 0.0
2018-Jun-26 16:25N 59°53' E 030°11'0 0.0
2018-Jun-26 15:59N 59°53' E 030°11'2 4.5
2018-Jun-26 15:30N 59°54' E 030°07'4 8.5
2018-Jun-26 15:00N 59°55' E 029°59'5 9.7
2018-Jun-26 14:30N 59°57' E 029°50'6 9.0
2018-Jun-26 13:53N 59°60' E 029°40'4 9.9
2018-Jun-26 13:30N 60°01' E 029°33'5 7.8
2018-Jun-26 12:53N 60°02' E 029°24'2 6.0
2018-Jun-26 12:30N 60°03' E 029°20'3 5.0
2018-Jun-26 11:56N 60°06' E 029°20'0 0.5
2018-Jun-26 11:29N 60°06' E 029°20'0 0.0
2018-Jun-26 10:56N 60°06' E 029°20'0 0.0
2018-Jun-26 10:30N 60°06' E 029°20'0 0.0
2018-Jun-26 10:00N 60°06' E 029°20'0 0.0
2018-Jun-26 09:22N 60°06' E 029°20'0 0.0
2018-Jun-26 08:59N 60°06' E 029°20'0 0.0
2018-Jun-26 08:26N 60°06' E 029°20'0 0.0
2018-Jun-26 07:56N 60°06' E 029°20'0 0.0
2018-Jun-26 07:29N 60°06' E 029°20'0 0.0
2018-Jun-26 06:54N 60°06' E 029°20'0 0.0
2018-Jun-26 06:14N 60°06' E 029°20'0 0.0
2018-Jun-26 05:46N 60°06' E 029°20'0 0.0
2018-Jun-26 05:29N 60°06' E 029°20'0 0.0
2018-Jun-26 02:38N 60°06' E 029°20'0 0.0
2018-Jun-26 01:05N 60°06' E 029°20'0 0.0
2018-Jun-25 23:53N 60°06' E 029°20'0 0.0
2018-Jun-25 17:42N 60°06' E 029°20'0 0.0
2018-Jun-25 17:30N 60°06' E 029°20'0 0.0
2018-Jun-25 17:00N 60°06' E 029°20'0 0.0
2018-Jun-25 16:30N 60°06' E 029°20'0 0.0
2018-Jun-25 14:10N 60°06' E 029°20'0 0.1
2018-Jun-25 13:58N 60°06' E 029°20'0 0.0
2018-Jun-24 20:33N 60°06' E 029°20'  

Dump ship's entire track history